createdAt,value
2022-12-02T00:02:40.279Z,-1.25
2022-12-02T00:05:43.347Z,-1.26
2022-12-02T00:08:45.612Z,-1.39
2022-12-02T00:11:49.101Z,-1.58
2022-12-02T00:15:03.902Z,-1.50
2022-12-02T00:18:06.933Z,-1.51
2022-12-02T00:21:09.385Z,-1.33
2022-12-02T00:24:12.303Z,-1.45
2022-12-02T00:27:14.750Z,-1.33
2022-12-02T00:30:17.935Z,-1.19
2022-12-02T00:33:20.295Z,-1.28
2022-12-02T00:36:23.147Z,-1.39
2022-12-02T00:39:25.507Z,-1.37
2022-12-02T00:42:28.183Z,-1.39
2022-12-02T00:45:48.849Z,-1.29
2022-12-02T00:48:51.675Z,-1.19
2022-12-02T00:51:54.017Z,-1.15
2022-12-02T00:54:56.654Z,-1.17
2022-12-02T00:57:59.029Z,-1.16
2022-12-02T01:01:02.198Z,-1.28
2022-12-02T01:04:05.165Z,-1.29
2022-12-02T01:07:07.922Z,-1.48
2022-12-02T01:10:10.725Z,-1.44
2022-12-02T01:13:13.340Z,-1.43
2022-12-02T01:16:16.140Z,-1.45
2022-12-02T01:19:19.101Z,-1.44
2022-12-02T01:22:21.724Z,-1.38
2022-12-02T01:25:24.523Z,-1.26
2022-12-02T01:28:26.983Z,-1.27
2022-12-02T01:31:29.644Z,-1.41
2022-12-02T01:34:32.053Z,-1.57
2022-12-02T01:37:34.784Z,-1.49
2022-12-02T01:40:37.313Z,-1.44
2022-12-02T01:43:39.896Z,-1.50
2022-12-02T01:46:42.494Z,-1.49
2022-12-02T01:49:45.414Z,-1.59
2022-12-02T01:52:48.013Z,-1.54
2022-12-02T01:55:50.732Z,-1.38
2022-12-02T01:58:53.589Z,-1.40
2022-12-02T02:01:56.323Z,-1.36
2022-12-02T02:05:02.021Z,-1.32
2022-12-02T02:08:09.621Z,-1.48
2022-12-02T02:11:12.216Z,-1.30
2022-12-02T02:14:15.834Z,-1.50
2022-12-02T02:17:18.874Z,-1.44
2022-12-02T02:20:23.619Z,-1.49
2022-12-02T02:23:27.382Z,-1.50
2022-12-02T02:26:31.317Z,-1.57
2022-12-02T02:29:34.082Z,-1.38
2022-12-02T02:32:37.231Z,-1.45
2022-12-02T02:35:40.080Z,-1.29
2022-12-02T02:38:42.821Z,-1.38
2022-12-02T02:41:46.196Z,-1.30
2022-12-02T02:44:49.233Z,-1.47
2022-12-02T02:47:53.740Z,-1.69
2022-12-02T02:50:56.913Z,-1.65
2022-12-02T02:54:00.011Z,-1.68
2022-12-02T02:57:03.305Z,-1.55
2022-12-02T03:00:06.472Z,-1.48
2022-12-02T03:03:11.398Z,-1.36
2022-12-02T03:06:14.701Z,-1.34
2022-12-02T03:09:21.333Z,-1.31
2022-12-02T03:12:23.889Z,-1.19
2022-12-02T03:15:28.089Z,-1.16
2022-12-02T03:18:30.696Z,-1.30
2022-12-02T03:21:35.231Z,-1.11
2022-12-02T03:24:38.094Z,-1.11
2022-12-02T03:27:40.908Z,-1.29
2022-12-02T03:30:43.429Z,-1.35
2022-12-02T03:33:46.303Z,-1.28
2022-12-02T03:36:48.715Z,-1.36
2022-12-02T03:39:51.870Z,-1.54
2022-12-02T03:42:54.401Z,-1.51
2022-12-02T03:45:57.708Z,-1.49
2022-12-02T03:49:01.050Z,-1.29
2022-12-02T03:52:04.294Z,-1.27
2022-12-02T03:55:07.605Z,-1.35
2022-12-02T03:58:10.301Z,-1.59
2022-12-02T04:01:13.272Z,-1.47
2022-12-02T04:04:16.083Z,-1.55
2022-12-02T04:07:18.422Z,-1.48
2022-12-02T04:10:21.139Z,-1.42
2022-12-02T04:13:23.491Z,-1.34
2022-12-02T04:16:26.321Z,-1.24
2022-12-02T04:19:28.804Z,-1.16
2022-12-02T04:22:31.782Z,-1.21
2022-12-02T04:25:34.273Z,-1.23
2022-12-02T04:28:36.978Z,-1.31
2022-12-02T04:31:39.337Z,-1.68
2022-12-02T04:34:42.097Z,-1.63
2022-12-02T04:37:44.528Z,-1.67
2022-12-02T04:40:47.170Z,-1.73
2022-12-02T04:43:50.145Z,-1.67
2022-12-02T04:46:52.954Z,-1.55
2022-12-02T04:49:55.404Z,-1.58
2022-12-02T04:52:58.123Z,-1.57
2022-12-02T04:56:00.449Z,-1.59
2022-12-02T04:59:03.018Z,-1.47
2022-12-02T05:02:05.384Z,-1.54
2022-12-02T05:05:08.451Z,-1.65
2022-12-02T05:08:10.905Z,-1.74
2022-12-02T05:11:13.602Z,-1.70
2022-12-02T05:14:15.863Z,-1.85
2022-12-02T05:17:19.288Z,-1.87
2022-12-02T05:20:21.733Z,-1.87
2022-12-02T05:23:24.419Z,-1.91
2022-12-02T05:26:26.720Z,-1.80
2022-12-02T05:29:29.444Z,-1.66
2022-12-02T05:32:31.725Z,-1.59
2022-12-02T05:35:34.436Z,-1.55
2022-12-02T05:38:36.724Z,-1.53
2022-12-02T05:41:39.363Z,-1.46
2022-12-02T05:44:43.364Z,-1.56
2022-12-02T05:47:50.245Z,-1.70
2022-12-02T05:50:53.897Z,-1.57
2022-12-02T05:53:56.533Z,-1.64
2022-12-02T05:57:02.641Z,-1.59
2022-12-02T06:00:22.837Z,-1.64
2022-12-02T06:03:25.782Z,-1.66
2022-12-02T06:06:30.998Z,-1.69
2022-12-02T06:09:33.859Z,-1.79
2022-12-02T06:12:39.209Z,-1.81
2022-12-02T06:15:41.641Z,-1.80
2022-12-02T06:18:44.269Z,-1.87
2022-12-02T06:21:46.593Z,-1.93
2022-12-02T06:24:49.553Z,-2.09
2022-12-02T06:27:54.535Z,-2.00
2022-12-02T06:30:59.897Z,-1.86
2022-12-02T06:34:12.676Z,-1.87
2022-12-02T06:37:25.135Z,-1.86
2022-12-02T06:40:30.929Z,-1.87
2022-12-02T06:43:33.850Z,-1.88
2022-12-02T06:46:37.034Z,-1.70
2022-12-02T06:49:40.364Z,-1.89
2022-12-02T06:52:45.329Z,-1.83
2022-12-02T06:55:50.783Z,-1.86
2022-12-02T06:59:04.330Z,-1.86
2022-12-02T07:02:37.093Z,-1.90
2022-12-02T07:05:39.452Z,-1.82
2022-12-02T07:08:42.705Z,-1.81
2022-12-02T07:11:52.039Z,-1.92
2022-12-02T07:14:59.472Z,-1.77
2022-12-02T07:18:09.918Z,-1.80
2022-12-02T07:21:13.996Z,-1.90
2022-12-02T07:24:19.447Z,-2.02
2022-12-02T07:27:28.141Z,-1.95
2022-12-02T07:30:35.980Z,-2.13
2022-12-02T07:33:38.664Z,-2.08
2022-12-02T07:36:41.050Z,-1.99
2022-12-02T07:39:43.790Z,-1.97
2022-12-02T07:42:46.240Z,-1.88
2022-12-02T07:45:48.836Z,-1.80
2022-12-02T07:48:55.766Z,-1.87
2022-12-02T07:51:59.916Z,-2.11
2022-12-02T07:55:02.727Z,-1.94
2022-12-02T07:58:05.447Z,-2.03
2022-12-02T08:01:07.790Z,-2.04
2022-12-02T08:04:10.524Z,-1.89
2022-12-02T08:07:12.916Z,-1.82
2022-12-02T08:10:15.776Z,-1.81
2022-12-02T08:13:18.103Z,-1.80
2022-12-02T08:16:20.822Z,-1.81
2022-12-02T08:19:23.665Z,-1.80
2022-12-02T08:22:26.269Z,-1.67
2022-12-02T08:25:28.631Z,-1.63
2022-12-02T08:28:31.385Z,-1.90
2022-12-02T08:31:33.784Z,-1.84
2022-12-02T08:34:36.598Z,-1.96
2022-12-02T08:37:39.585Z,-2.14
2022-12-02T08:40:42.233Z,-1.95
2022-12-02T08:43:44.674Z,-1.89
2022-12-02T08:46:52.568Z,-2.00
2022-12-02T08:49:56.527Z,-1.91
2022-12-02T08:52:59.242Z,-2.04
2022-12-02T08:56:01.701Z,-1.99
2022-12-02T08:59:04.763Z,-1.96
2022-12-02T09:02:07.342Z,-2.09
2022-12-02T09:05:10.102Z,-2.02
2022-12-02T09:08:12.388Z,-1.88
2022-12-02T09:11:15.680Z,-1.93
2022-12-02T09:14:18.131Z,-1.94
2022-12-02T09:17:20.783Z,-1.99
2022-12-02T09:20:23.221Z,-1.97
2022-12-02T09:23:26.156Z,-1.80
2022-12-02T09:26:28.410Z,-2.02
2022-12-02T09:29:31.144Z,-2.00
2022-12-02T09:32:33.888Z,-2.09
2022-12-02T09:35:36.529Z,-2.10
2022-12-02T09:38:38.949Z,-2.09
2022-12-02T09:41:41.881Z,-2.05
2022-12-02T09:44:44.817Z,-2.04
2022-12-02T09:47:47.552Z,-2.12
2022-12-02T09:50:51.123Z,-2.19
2022-12-02T09:53:54.300Z,-2.15
2022-12-02T09:56:57.182Z,-2.20
2022-12-02T10:00:01.145Z,-2.31
2022-12-02T10:03:04.208Z,-2.16
2022-12-02T10:06:12.850Z,-2.12
2022-12-02T10:09:30.430Z,-2.18
2022-12-02T10:12:34.289Z,-2.12
2022-12-02T10:15:36.583Z,-2.10
2022-12-02T10:18:39.659Z,-2.26
2022-12-02T10:21:42.034Z,-2.12
2022-12-02T10:24:46.067Z,-2.08
2022-12-02T10:27:48.522Z,-1.98
2022-12-02T10:30:57.811Z,-1.86
2022-12-02T10:34:20.600Z,-2.08
2022-12-02T10:37:25.843Z,-2.28
2022-12-02T10:40:28.210Z,-2.34
2022-12-02T10:43:30.905Z,-2.26
2022-12-02T10:46:34.039Z,-2.40
2022-12-02T10:49:37.713Z,-2.42
2022-12-02T10:52:47.152Z,-2.33
2022-12-02T10:55:49.774Z,-2.44
2022-12-02T10:58:52.637Z,-2.39
2022-12-02T11:01:55.915Z,-2.52
2022-12-02T11:05:01.832Z,-2.52
2022-12-02T11:08:19.532Z,-2.63
2022-12-02T11:11:25.274Z,-2.59
2022-12-02T11:14:40.064Z,-2.57
2022-12-02T11:17:47.966Z,-2.48
2022-12-02T11:21:13.575Z,-2.42
2022-12-02T11:24:26.631Z,-2.55
2022-12-02T11:27:29.275Z,-2.64
2022-12-02T11:30:37.625Z,-2.61
2022-12-02T11:33:53.516Z,-2.45
2022-12-02T11:37:33.821Z,-2.44
2022-12-02T11:40:36.393Z,-2.42
2022-12-02T11:43:44.955Z,-2.51
2022-12-02T11:46:59.558Z,-2.66
2022-12-02T11:50:16.278Z,-2.55
2022-12-02T11:53:21.372Z,-2.67
2022-12-02T11:56:24.158Z,-2.63
2022-12-02T11:59:29.240Z,-2.62
2022-12-02T12:02:31.758Z,-2.51
2022-12-02T12:05:34.868Z,-2.58
2022-12-02T12:08:45.060Z,-2.55
2022-12-02T12:12:12.987Z,-2.61
2022-12-02T12:15:15.361Z,-2.37
2022-12-02T12:18:38.712Z,-2.33
2022-12-02T12:21:49.281Z,-2.27
2022-12-02T12:24:52.162Z,-2.38
2022-12-02T12:27:54.832Z,-2.32
2022-12-02T12:30:58.466Z,-2.59
2022-12-02T12:34:00.842Z,-2.70
2022-12-02T12:37:04.453Z,-2.82
2022-12-02T12:40:07.781Z,-2.86
2022-12-02T12:43:10.592Z,-2.79
2022-12-02T12:46:13.005Z,-2.90
2022-12-02T12:49:15.804Z,-2.85
2022-12-02T12:52:18.483Z,-2.85
2022-12-02T12:55:21.201Z,-2.98
2022-12-02T12:58:23.681Z,-2.95
2022-12-02T13:01:26.444Z,-2.82
2022-12-02T13:04:28.891Z,-2.81
2022-12-02T13:07:31.683Z,-2.78
2022-12-02T13:10:34.180Z,-2.90
2022-12-02T13:13:36.927Z,-2.84
2022-12-02T13:16:39.335Z,-2.94
2022-12-02T13:19:42.403Z,-2.98
2022-12-02T13:22:45.743Z,-2.90
2022-12-02T13:25:48.450Z,-2.85
2022-12-02T13:28:53.456Z,-2.93
2022-12-02T13:31:56.232Z,-3.02
2022-12-02T13:34:58.600Z,-3.10
2022-12-02T13:38:01.279Z,-3.13
2022-12-02T13:41:03.656Z,-3.21
2022-12-02T13:44:06.501Z,-3.12
2022-12-02T13:47:08.951Z,-3.10
2022-12-02T13:50:11.749Z,-3.42
2022-12-02T13:53:14.161Z,-3.32
2022-12-02T13:56:16.893Z,-3.39
2022-12-02T13:59:19.312Z,-3.28
2022-12-02T14:02:22.185Z,-3.22
2022-12-02T14:05:24.661Z,-3.17
2022-12-02T14:08:27.314Z,-3.00
2022-12-02T14:11:29.687Z,-3.07
2022-12-02T14:14:32.391Z,-3.15
2022-12-02T14:17:34.832Z,-3.07
2022-12-02T14:20:37.530Z,-3.06
2022-12-02T14:23:39.967Z,-3.11
2022-12-02T14:26:42.678Z,-3.03
2022-12-02T14:29:45.078Z,-3.11
2022-12-02T14:32:48.199Z,-3.10
2022-12-02T14:35:50.570Z,-3.16
2022-12-02T14:38:53.305Z,-3.20
2022-12-02T14:41:55.643Z,-3.20
2022-12-02T14:44:58.353Z,-3.08
2022-12-02T14:48:00.810Z,-3.04
2022-12-02T14:51:03.463Z,-3.09
2022-12-02T14:54:05.910Z,-3.14
2022-12-02T14:57:13.696Z,-3.12
2022-12-02T15:00:16.798Z,-3.17
2022-12-02T15:03:19.568Z,-3.23
2022-12-02T15:06:21.991Z,-3.34
2022-12-02T15:09:24.759Z,-3.36
2022-12-02T15:12:27.224Z,-3.34
2022-12-02T15:15:38.189Z,-3.22
2022-12-02T15:18:41.989Z,-3.21
2022-12-02T15:21:44.739Z,-3.07
2022-12-02T15:24:47.765Z,-3.11
2022-12-02T15:27:50.917Z,-3.17
2022-12-02T15:30:53.440Z,-3.32
2022-12-02T15:33:56.701Z,-3.18
2022-12-02T15:36:59.546Z,-3.15
2022-12-02T15:40:04.873Z,-3.18
2022-12-02T15:43:07.629Z,-3.23
2022-12-02T15:46:10.858Z,-3.30
2022-12-02T15:49:13.697Z,-3.22
2022-12-02T15:52:16.464Z,-3.23
2022-12-02T15:55:18.921Z,-3.20
2022-12-02T15:58:21.720Z,-3.12
2022-12-02T16:01:24.258Z,-3.17
2022-12-02T16:04:27.163Z,-3.12
2022-12-02T16:07:29.943Z,-3.15
2022-12-02T16:10:33.167Z,-3.25
2022-12-02T16:13:36.188Z,-3.23
2022-12-02T16:16:40.640Z,-3.12
2022-12-02T16:19:43.160Z,-3.21
2022-12-02T16:22:46.644Z,-3.23
2022-12-02T16:25:49.448Z,-3.29
2022-12-02T16:28:54.447Z,-3.23
2022-12-02T16:31:57.093Z,-3.18
2022-12-02T16:34:59.995Z,-3.19
2022-12-02T16:38:04.741Z,-3.24
2022-12-02T16:41:08.246Z,-3.26
2022-12-02T16:44:11.438Z,-3.28
2022-12-02T16:47:14.617Z,-3.28
2022-12-02T16:50:18.388Z,-3.30
2022-12-02T16:53:23.674Z,-3.21
2022-12-02T16:56:26.243Z,-3.23
2022-12-02T16:59:29.479Z,-3.17
2022-12-02T17:02:32.629Z,-3.16
2022-12-02T17:05:37.037Z,-3.09
2022-12-02T17:08:39.980Z,-3.18
2022-12-02T17:11:43.732Z,-3.11
2022-12-02T17:14:48.528Z,-3.21
2022-12-02T17:17:54.357Z,-3.29
2022-12-02T17:20:57.236Z,-3.20
2022-12-02T17:24:00.540Z,-3.04
2022-12-02T17:27:04.056Z,-2.99
2022-12-02T17:30:07.723Z,-3.13
2022-12-02T17:33:10.159Z,-3.27
2022-12-02T17:36:14.017Z,-3.27
2022-12-02T17:39:19.151Z,-3.24
2022-12-02T17:42:22.207Z,-3.15
2022-12-02T17:45:25.070Z,-3.10
2022-12-02T17:48:29.214Z,-3.14
2022-12-02T17:51:31.630Z,-3.15
2022-12-02T17:54:35.158Z,-3.23
2022-12-02T17:57:37.745Z,-3.23
2022-12-02T18:00:41.001Z,-3.21
2022-12-02T18:03:43.439Z,-3.21
2022-12-02T18:06:46.306Z,-3.04
2022-12-02T18:09:49.541Z,-3.08
2022-12-02T18:12:53.243Z,-3.12
2022-12-02T18:15:56.223Z,-3.18
2022-12-02T18:18:59.600Z,-3.22
2022-12-02T18:22:02.414Z,-3.22
2022-12-02T18:25:06.622Z,-3.16
2022-12-02T18:28:09.151Z,-3.18
2022-12-02T18:31:12.185Z,-3.14
2022-12-02T18:34:15.182Z,-3.19
2022-12-02T18:37:18.870Z,-3.22
2022-12-02T18:40:23.137Z,-3.14
2022-12-02T18:43:28.868Z,-3.18
2022-12-02T18:46:35.413Z,-3.15
2022-12-02T18:49:42.618Z,-3.25
2022-12-02T18:52:46.548Z,-3.28
2022-12-02T18:55:50.198Z,-3.17
2022-12-02T18:58:54.745Z,-3.18
2022-12-02T19:02:02.525Z,-3.28
2022-12-02T19:05:07.561Z,-3.23
2022-12-02T19:08:11.144Z,-3.28
2022-12-02T19:11:14.591Z,-3.29
2022-12-02T19:14:18.639Z,-3.27
2022-12-02T19:17:21.624Z,-3.13
2022-12-02T19:20:25.584Z,-3.20
2022-12-02T19:23:29.543Z,-3.03
2022-12-02T19:26:33.602Z,-3.02
2022-12-02T19:29:37.030Z,-2.99
2022-12-02T19:32:40.743Z,-2.96
2022-12-02T19:35:43.980Z,-3.22
2022-12-02T19:38:47.313Z,-3.28
2022-12-02T19:41:54.530Z,-3.14
2022-12-02T19:44:58.640Z,-3.21
2022-12-02T19:48:02.451Z,-3.26
2022-12-02T19:51:06.377Z,-3.15
2022-12-02T19:54:10.899Z,-3.12
2022-12-02T19:57:14.812Z,-3.16
2022-12-02T20:00:18.915Z,-3.11
2022-12-02T20:03:22.405Z,-2.95
2022-12-02T20:06:25.467Z,-2.86
2022-12-02T20:09:29.341Z,-3.16
2022-12-02T20:12:33.550Z,-3.08
2022-12-02T20:15:39.817Z,-3.02
2022-12-02T20:18:43.403Z,-3.05
2022-12-02T20:21:47.617Z,-2.97
2022-12-02T20:24:50.872Z,-3.04
2022-12-02T20:27:56.132Z,-2.89
2022-12-02T20:30:59.634Z,-2.76
2022-12-02T20:34:07.565Z,-2.80
2022-12-02T20:37:11.070Z,-2.68
2022-12-02T20:40:15.773Z,-2.52
2022-12-02T20:43:19.183Z,-2.51
2022-12-02T20:46:24.585Z,-2.55
2022-12-02T20:49:27.638Z,-2.49
2022-12-02T20:52:31.013Z,-2.49
2022-12-02T20:55:34.085Z,-2.51
2022-12-02T20:58:37.763Z,-2.52
2022-12-02T21:01:41.144Z,-2.55
2022-12-02T21:04:44.761Z,-2.58
2022-12-02T21:07:47.858Z,-2.59
2022-12-02T21:10:51.549Z,-2.58
2022-12-02T21:13:54.842Z,-2.71
2022-12-02T21:16:58.161Z,-2.59
2022-12-02T21:20:01.226Z,-2.63
2022-12-02T21:23:05.688Z,-2.63
2022-12-02T21:26:08.598Z,-2.57
2022-12-02T21:29:11.848Z,-2.56
2022-12-02T21:32:14.812Z,-2.54
2022-12-02T21:35:17.691Z,-2.60
2022-12-02T21:38:20.250Z,-2.51
2022-12-02T21:41:24.583Z,-2.49
2022-12-02T21:44:27.228Z,-2.47
2022-12-02T21:47:30.025Z,-2.38
2022-12-02T21:50:32.761Z,-2.48
2022-12-02T21:53:37.164Z,-2.36
2022-12-02T21:56:39.575Z,-2.43
2022-12-02T21:59:42.884Z,-2.48
2022-12-02T22:02:45.449Z,-2.48
2022-12-02T22:05:48.969Z,-2.39
2022-12-02T22:08:51.401Z,-2.40
2022-12-02T22:11:54.110Z,-2.41
2022-12-02T22:14:56.821Z,-2.46
2022-12-02T22:18:02.698Z,-2.57
2022-12-02T22:21:07.266Z,-2.49
2022-12-02T22:24:10.086Z,-2.42
2022-12-02T22:27:12.621Z,-2.35
2022-12-02T22:30:17.278Z,-2.35
2022-12-02T22:33:19.720Z,-2.47
2022-12-02T22:36:22.395Z,-2.42
2022-12-02T22:39:26.482Z,-2.38
2022-12-02T22:42:29.476Z,-2.45
2022-12-02T22:45:31.997Z,-2.45
2022-12-02T22:48:34.772Z,-2.42
2022-12-02T22:51:37.114Z,-2.36
2022-12-02T22:54:40.022Z,-2.38
2022-12-02T22:57:42.435Z,-2.37
2022-12-02T23:00:45.133Z,-2.44
2022-12-02T23:03:47.543Z,-2.40
2022-12-02T23:06:50.298Z,-2.54
2022-12-02T23:09:52.668Z,-2.53
2022-12-02T23:12:55.423Z,-2.49
2022-12-02T23:15:57.788Z,-2.34
2022-12-02T23:19:00.570Z,-2.38
2022-12-02T23:22:03.084Z,-2.40
2022-12-02T23:25:06.280Z,-2.39
2022-12-02T23:28:08.687Z,-2.36
2022-12-02T23:31:11.670Z,-2.24
2022-12-02T23:34:14.112Z,-2.32
2022-12-02T23:37:16.821Z,-2.35
2022-12-02T23:40:19.529Z,-2.29
2022-12-02T23:43:22.373Z,-2.28
2022-12-02T23:46:24.946Z,-2.28
2022-12-02T23:49:27.758Z,-2.27
2022-12-02T23:52:30.045Z,-2.28
2022-12-02T23:55:32.770Z,-2.34
2022-12-02T23:58:35.247Z,-2.30
